Kezdőlap
METAR-TAF:

METAR-TAF

Repülőterek :

Craig, Colorado, Amerikai Egyesült Államok

földrajzi szélesség: 40-29-36N, földrajzi hosszúság: 107-31-25W, magasság: 1888 m

Jelenlegi meteorológiai megfigyelések

A jelentés 28 perccel ezelõtt készült, 00:53 UTC
Nyugat-délnyugati szél 10 kt széllökések: 18 kt
Hőmérséklet 11°C
Páratartalom 28%
Légköri nyomás 1009 hPa
Látótávolság: 16.1 km
Szakadozott felhőzet 10000 lábon

METAR: KCAG 050053Z AUTO 25010G18KT 10SM BKN100 11/M07 A2979 RMK AO2 SLP085 T01111072

Idő: 19:21 (01:21 UTC)


TAF: hiányzik

Meteorológiai megfigyelések és előrejelzések több, mint 4000 repülőtéren (METAR és TAF jelentéseket).

A térképen piros és sárga pontok jelzik az elérhető meteorológiai állomásokat.

Mozgassa az egeret a pont fölött, hogy megjelenjen az állomás neve.

Azután kattintson az időjárási megfigyelések és előrejelzések megtekintéséhez.

A térkép megváltoztatása: kattintson a fekete keresztel jelölt zöld gombra ráközelítéshez, a vonallal jelölt zöld gombra távolításhoz, vagy a zöld nyilakra a szomszédos térképek eléréséhez.


METAR-TAF: